Flight Track Log - Related Links

Times and Time Zones

All times are in EDT time to prevent confusion due to time zone crossing. See the EJA951 flight status page for this flight to view local times or setup timezone preferences in your user account.

Time Position Orientation Groundspeed Altitude Reporting Facility
EDT Latitude Longitude Course Direction KTS MPH feet Rate Location/Type
Thu 01:38:38 PM 30.3964 -85.5078 69° East 332 382 17,700  Level Jacksonville Center
Thu 01:39:38 PM 30.4153 -85.4000 78° East 332 382 18,900 1,150 Climbing Jacksonville Center
Thu 01:40:00 PM 30.7602 -84.9422 78° East  Level Estimated
Thu 01:40:38 PM 30.4322 -85.2778 81° East 352 405 20,000  Level Jacksonville Center
Thu 01:41:00 PM 30.8171 -84.8197 84° East  Level Estimated
Thu 01:41:38 PM 30.4344 -85.1475 89° East 379 436 21,100  Level Jacksonville Center
Thu 01:42:00 PM 30.8740 -84.6970 83° East  Level Estimated
Thu 01:42:38 PM 30.4306 -85.0175 92° East 392 451 22,300  Level Jacksonville Center
Thu 01:43:00 PM 30.9307 -84.5742 69° East  Level Estimated
Thu 01:43:38 PM 30.4306 -84.8800 90° East 410 472 23,500  Level Jacksonville Center
Thu 01:44:38 PM 30.4658 -84.7483 73° East 417 480 24,900 1,400 Climbing Jacksonville Center
Thu 01:45:38 PM 30.5283 -84.6289 59° Northeast 417 480 26,300 1,450 Climbing Jacksonville Center
Thu 01:46:38 PM 30.5861 -84.5069 61° Northeast 417 480 27,800 1,600 Climbing Jacksonville Center
Thu 01:47:38 PM 30.6483 -84.3728 62° Northeast 423 487 29,500 1,550 Climbing Jacksonville Center
Thu 01:48:38 PM 30.7103 -84.2506 59° Northeast 428 493 30,900 750 Climbing Jacksonville Center
Thu 01:49:38 PM 30.7722 -84.1233 60° Northeast 439 505 31,000 50 Climbing Jacksonville Center
Thu 01:50:38 PM 30.8381 -83.9839 61° Northeast 463 533 31,000  Level Jacksonville Center
Thu 01:51:38 PM 30.9061 -83.8442 60° Northeast 481 554 31,000  Level Jacksonville Center
Thu 01:52:38 PM 30.9739 -83.7019 61° Northeast 488 562 31,000  Level Jacksonville Center
Thu 01:53:38 PM 31.0394 -83.5617 61° Northeast 488 562 31,000  Level Jacksonville Center
Thu 01:54:38 PM 31.1069 -83.4217 61° Northeast 493 567 31,000  Level Jacksonville Center
Thu 01:55:38 PM 31.1764 -83.2811 60° Northeast 493 567 31,000  Level Jacksonville Center
Thu 01:56:38 PM 31.2372 -83.1428 63° Northeast 486 559 31,000  Level Jacksonville Center
Thu 01:57:38 PM 31.3000 -83.0117 61° Northeast 474 545 31,000  Level Jacksonville Center
Thu 01:59:00 PM 31.3712 -82.8563 62° Northeast  Level FlightAware Approximate
Thu 01:59:38 PM 31.4272 -82.7417 62° Northeast 469 540 31,000  Level Jacksonville Center
Thu 02:00:38 PM 31.4897 -82.6100 61° Northeast 463 533 31,000  Level Jacksonville Center
Thu 02:01:38 PM 31.5478 -82.4756 63° Northeast 458 527 31,000 -50 Level Jacksonville Center
Thu 02:02:38 PM 31.6119 -82.3461 60° Northeast 458 527 30,900 -900 Descending Jacksonville Center
Thu 02:03:38 PM 31.6761 -82.2092 61° Northeast 462 532 29,200 -1,600 Descending Jacksonville Center
Thu 02:04:38 PM 31.7339 -82.0864 61° Northeast 475 547 27,700 -1,500 Descending Jacksonville Center
Thu 02:05:38 PM 31.8058 -81.9342 61° Northeast 486 559 26,200 -1,250 Descending Jacksonville Center
Thu 02:06:38 PM 31.8633 -81.8114 61° Northeast 474 545 25,200 -1,200 Descending Jacksonville Center
Thu 02:07:38 PM 31.9331 -81.6611 61° Northeast 468 539 23,800 -1,550 Descending Jacksonville Center
Thu 02:08:38 PM 31.9964 -81.5256 61° Northeast 468 539 22,100 -1,400 Descending Jacksonville Center
Thu 02:09:38 PM 32.0492 -81.4097 62° Northeast 462 532 21,000 -550 Descending Jacksonville Center
Thu 02:10:38 PM 32.1019 -81.2789 65° Northeast 449 517 21,000  Level Jacksonville Center
Thu 02:11:38 PM 32.1314 -81.1386 76° East 437 503 21,000  Level Jacksonville Center
Thu 02:12:38 PM 32.1564 -80.9858 79° East 419 482 21,000  Level Jacksonville Center
Thu 02:13:38 PM 32.1750 -80.8431 81° East 432 497 21,000 -200 Level Jacksonville Center
Thu 02:14:38 PM 32.2231 -80.7242 64° Northeast 438 504 20,600 -1,100 Descending Jacksonville Center
Thu 02:15:38 PM 32.3217 -80.6236 41° Northeast 437 503 18,800 -1,900 Descending Jacksonville Center
Thu 02:16:38 PM 32.4219 -80.5250 40° Northeast 443 510 16,800 -2,000 Descending Jacksonville Center
Thu 02:17:38 PM 32.5142 -80.4292 41° Northeast 443 510 14,800 -2,200 Descending Jacksonville Center
Thu 02:18:38 PM 32.6022 -80.3403 40° Northeast 429 494 12,400 -2,250 Descending Jacksonville Center
Thu 02:19:38 PM 32.6822 -80.2714 36° Northeast 391 450 10,300 -1,700 Descending Jacksonville Center
Thu 02:20:38 PM 32.7606 -80.2247 27° Northeast 346 398 9,000 -1,850 Descending Jacksonville Center
Thu 02:21:38 PM 32.8369 -80.1878 22° Northeast 307 353 6,600 -2,500 Descending Jacksonville Center
Thu 02:22:38 PM 32.9136 -80.1633 15° North 288 331 4,000 -2,150 Descending Jacksonville Center
Thu 02:23:38 PM 32.9756 -80.1292 25° Northeast 266 306 2,300 -1,050 Descending Jacksonville Center
Thu 02:24:38 PM 32.9867 -80.0644 78° East 198 228 1,900 -500 Descending Jacksonville Center
Thu 02:25:38 PM 32.9731 -80.0203 110° East 161 185 1,300 -600 Descending Jacksonville Center
Thu 02:27:00 PM 32.8986 -80.0405 190° South  Level Estimated
Thu 02:34:00 PM 32.8986 -80.0405 190° South  Level Estimated
Thu 02:35:00 PM 32.8986 -80.0405 190° South  Level Estimated
Thu 02:36:00 PM 32.8986 -80.0405 190° South  Level Estimated

Login

Don't have an account? Register now (free) for customized features, flight alerts, and more!